LOWK 200050Z AUTO VRB02KT 9999 BKN100 15/11 Q1025 LOWK 200020Z AUTO 30005KT 9999 FEW090 SCT100 15/10 Q1025 LOWK 192350Z AUTO 30004KT 9999 NCD 15/10 Q1025 LOWK 192320Z AUTO 30004KT 260V320 9999 NCD 15/10 Q1025 LOWK 192250Z AUTO VRB02KT 9999 NCD 16/10 Q1025 LOWK 192220Z AUTO VRB02KT 9999 NCD 16/11 Q1025 LOWK 192150Z AUTO VRB02KT 9999 NCD 17/10 Q1025 LOWK 192120Z 31004KT 290V350 CAVOK 17/11 Q1025 NOSIG LOWK 192050Z 30003KT CAVOK 18/11 Q1025 NOSIG LOWK 192020Z 32003KT CAVOK 18/11 Q1025 NOSIG LOWK 191950Z 31003KT CAVOK 20/11 Q1025 NOSIG LOWK 191920Z VRB01KT CAVOK 20/10 Q1024 NOSIG LOWK 191850Z 09003KT 060V120 9999 FEW060 22/09 Q1024 NOSIG LOWK 191820Z 11003KT 080V140 CAVOK 23/09 Q1024 NOSIG LOWK 191750Z VRB02KT CAVOK 23/10 Q1023 NOSIG LOWK 191720Z 18005KT 140V230 9999 FEW060 24/10 Q1023 NOSIG LOWK 191650Z 18006KT 150V220 9999 FEW060 25/10 Q1023 NOSIG LOWK 191620Z 16004KT 100V210 9999 FEW060 26/11 Q1023 NOSIG LOWK 191550Z 07003KT 020V180 9999 FEW060 26/09 Q1023 NOSIG LOWK 191520Z VRB04KT 9999 FEW060 26/10 Q1024 NOSIG LOWK 191450Z 09004KT 040V210 9999 FEW060 25/10 Q1024 NOSIG LOWK 191420Z 08005KT 050V130 9999 FEW060 25/10 Q1024 NOSIG LOWK 191350Z VRB03KT 9999 FEW060 25/11 Q1024 NOSIG LOWK 191320Z 09005KT 020V170 9999 FEW060 25/10 Q1025 NOSIG LOWK 191250Z VRB03KT 9999 FEW060 24/09 Q1025 NOSIG LOWK 191220Z 07004KT 350V130 9999 FEW060 23/08 Q1025 NOSIG LOWK 191150Z VRB03KT 9999 FEW050 22/08 Q1026 NOSIG LOWK 191120Z VRB03KT 9999 FEW050 22/08 Q1026 NOSIG LOWK 191050Z VRB02KT 9999 FEW050 21/07 Q1027 NOSIG LOWK 191020Z VRB03KT CAVOK 21/08 Q1027 NOSIG LOWK 190950Z VRB03KT CAVOK 20/06 Q1027 NOSIG LOWK 190920Z AUTO VRB03KT CAVOK 19/07 Q1028 NOSIG LOWK 190850Z AUTO VRB03KT CAVOK 18/06 Q1028 NOSIG LOWK 190820Z AUTO VRB02KT CAVOK 17/06 Q1028 NOSIG LOWK 190750Z AUTO VRB01KT CAVOK 17/06 Q1029 NOSIG LOWK 190720Z AUTO 04003KT 360V100 CAVOK 16/06 Q1029 NOSIG LOWK 190650Z AUTO VRB02KT CAVOK 15/08 Q1029 NOSIG LOWK 190620Z AUTO VRB02KT CAVOK 15/07 Q1029 NOSIG LOWK 190550Z AUTO VRB02KT CAVOK 13/08 Q1029 NOSIG LOWK 190520Z AUTO VRB01KT CAVOK 12/08 Q1029 NOSIG LOWK 190450Z AUTO 31002KT CAVOK 10/07 Q1029 NOSIG LOWK 190420Z AUTO 32003KT CAVOK 09/07 Q1029 NOSIG LOWK 190350Z AUTO 30004KT CAVOK 09/07 Q1029 NOSIG LOWK 190320Z AUTO 32003KT 9999 NCD 09/07 Q1028 LOWK 190250Z AUTO 30002KT 9999 NCD 10/07 Q1028 LOWK 190220Z AUTO 31002KT 9999 NCD 10/07 Q1028 LOWK 190150Z AUTO 29002KT 9999 NCD 10/07 Q1028 LOWK 190120Z AUTO VRB02KT 9999 NCD 11/07 Q1028 LOWK 190050Z AUTO 31004KT 9999 NCD 11/07 Q1028 LOWK 190020Z AUTO 30004KT 9999 NCD 11/07 Q1028 LOWK 182350Z AUTO 30005KT 9999 NCD 12/07 Q1028 LOWK 182320Z AUTO 34004KT 9999 NCD 12/07 Q1028 LOWK 182250Z AUTO VRB02KT 9999 NCD 13/07 Q1028 LOWK 182220Z AUTO VRB01KT 9999 NCD 14/07 Q1028 LOWK 182150Z AUTO VRB01KT 9999 NCD 14/07 Q1028 LOWK 182120Z 13003KT 100V170 CAVOK 14/05 Q1028 NOSIG LOWK 182050Z 10004KT 060V140 CAVOK 17/05 Q1027 NOSIG LOWK 182020Z 09005KT 050V120 9999 FEW090 17/06 Q1027 NOSIG LOWK 181950Z 08005KT 050V130 9999 FEW090 18/06 Q1027 NOSIG LOWK 181920Z 09005KT 040V130 9999 FEW060 18/06 Q1026 NOSIG LOWK 181850Z 08006KT 050V110 9999 FEW060 19/07 Q1026 NOSIG LOWK 181820Z 09006KT 050V140 9999 FEW060 19/07 Q1026 NOSIG LOWK 181750Z 09007KT 050V130 9999 FEW060 20/07 Q1025 NOSIG LOWK 181720Z 09009KT 050V120 9999 FEW060 21/07 Q1025 NOSIG LOWK 181650Z 08008KT 050V120 9999 FEW060 21/07 Q1025 NOSIG LOWK 181620Z 09007KT 040V150 9999 FEW060 22/07 Q1025 NOSIG LOWK 181550Z 09006KT 060V150 9999 FEW060 22/08 Q1025 NOSIG LOWK 181520Z 10006KT 050V180 9999 FEW060 22/08 Q1025 NOSIG LOWK 181450Z 11007KT 060V150 9999 FEW060 22/09 Q1025 NOSIG LOWK 181420Z 10007KT 050V160 9999 FEW060 22/08 Q1025 NOSIG LOWK 181350Z 09008KT 050V140 9999 FEW060 22/09 Q1025 NOSIG

METAR Messwerte "KLAGENFURT(CIV/M" LOWK

Zurück zur Übersicht

Ortsname
Ländercode / m ü. NN
Zeit Temperatur Taupunkt Rel.
Luftfeuchte
Luftdruck:
Altimeter
NN
Station
Wind in Beaufort
(Knoten)
Sichtweite
(Meter)
Wolken
(Meter über Grund)
Wettererscheinung
KLAGENFURT(CIV/M
AT 450
Fr 20.05. 02:50151177 %1025
1025
972
Uml 1 (2)>= 10000Stark bewölkt (3000) 
KLAGENFURT(CIV/M
AT 450
Fr 20.05. 02:20151072 %1025
1025
972
WNW 2 (5)>= 10000Wolkig (3000)
Leicht bewölkt (2700)
 
KLAGENFURT(CIV/M
AT 450
Fr 20.05. 01:50151072 %1025
1025
972
WNW 2 (4)>= 10000  
KLAGENFURT(CIV/M
AT 450
Fr 20.05. 01:20151072 %1025
1025
972
WNW 2 (4)
W - NW
>= 10000  
KLAGENFURT(CIV/M
AT 450
Fr 20.05. 00:50161068 %1025
1025
972
Uml 1 (2)>= 10000  
KLAGENFURT(CIV/M
AT 450
Fr 20.05. 00:20161172 %1025
1025
972
Uml 1 (2)>= 10000  
KLAGENFURT(CIV/M
AT 450
Do 19.05. 23:50171063 %1025
1025
972
Uml 1 (2)>= 10000  
KLAGENFURT(CIV/M
AT 450
Do 19.05. 23:20171168 %1025
1025
972
NW 2 (4)
WNW - N
>= 10000Nicht signifikant 
KLAGENFURT(CIV/M
AT 450
Do 19.05. 22:50181164 %1025
1025
972
WNW 2 (3)>= 10000Nicht signifikant 
KLAGENFURT(CIV/M
AT 450
Do 19.05. 22:20181164 %1025
1025
972
NW 2 (3)>= 10000Nicht signifikant 
KLAGENFURT(CIV/M
AT 450
Do 19.05. 21:50201156 %1025
1024
972
NW 2 (3)>= 10000Nicht signifikant 
KLAGENFURT(CIV/M
AT 450
Do 19.05. 21:20201053 %1024
1023
971
Uml 1 (1)>= 10000Nicht signifikant 
KLAGENFURT(CIV/M
AT 450
Do 19.05. 20:5022943 %1024
1023
971
O 2 (3)
ONO - OSO
>= 10000Leicht bewölkt (1800) 
KLAGENFURT(CIV/M
AT 450
Do 19.05. 20:2023941 %1024
1023
971
OSO 2 (3)
O - SO
>= 10000Nicht signifikant 
KLAGENFURT(CIV/M
AT 450
Do 19.05. 19:50231044 %1023
1022
970
Uml 1 (2)>= 10000Nicht signifikant 
KLAGENFURT(CIV/M
AT 450
Do 19.05. 19:20241041 %1023
1021
970
S 2 (5)
SO - SW
>= 10000Leicht bewölkt (1800) 
KLAGENFURT(CIV/M
AT 450
Do 19.05. 18:50251039 %1023
1021
970
S 2 (6)
SSO - SW
>= 10000Leicht bewölkt (1800) 
KLAGENFURT(CIV/M
AT 450
Do 19.05. 18:20261139 %1023
1021
970
SSO 2 (4)
O - SSW
>= 10000Leicht bewölkt (1800) 
KLAGENFURT(CIV/M
AT 450
Do 19.05. 17:5026934 %1023
1021
970
ONO 2 (3)
NNO - S
>= 10000Leicht bewölkt (1800) 
KLAGENFURT(CIV/M
AT 450
Do 19.05. 17:20261037 %1024
1022
971
Uml 2 (4)>= 10000Leicht bewölkt (1800) 
KLAGENFURT(CIV/M
AT 450
Do 19.05. 16:50251039 %1024
1022
971
O 2 (4)
NO - SSW
>= 10000Leicht bewölkt (1800) 
KLAGENFURT(CIV/M
AT 450
Do 19.05. 16:20251039 %1024
1022
971
O 2 (5)
NO - SO
>= 10000Leicht bewölkt (1800) 
KLAGENFURT(CIV/M
AT 450
Do 19.05. 15:50251141 %1024
1022
971
Uml 2 (3)>= 10000Leicht bewölkt (1800) 
KLAGENFURT(CIV/M
AT 450
Do 19.05. 15:20251039 %1025
1023
972
O 2 (5)
NNO - S
>= 10000Leicht bewölkt (1800) 
KLAGENFURT(CIV/M
AT 450
Do 19.05. 14:5024938 %1025
1023
972
Uml 2 (3)>= 10000Leicht bewölkt (1800) 
KLAGENFURT(CIV/M
AT 450
Do 19.05. 14:2023838 %1025
1024
972
ONO 2 (4)
N - SO
>= 10000Leicht bewölkt (1800) 
KLAGENFURT(CIV/M
AT 450
Do 19.05. 13:5022841 %1026
1025
973
Uml 2 (3)>= 10000Leicht bewölkt (1500) 
KLAGENFURT(CIV/M
AT 450
Do 19.05. 13:2022841 %1026
1025
973
Uml 2 (3)>= 10000Leicht bewölkt (1500) 
KLAGENFURT(CIV/M
AT 450
Do 19.05. 12:5021740 %1027
1026
974
Uml 1 (2)>= 10000Leicht bewölkt (1500) 
KLAGENFURT(CIV/M
AT 450
Do 19.05. 12:2021843 %1027
1026
974
Uml 2 (3)>= 10000Nicht signifikant 
KLAGENFURT(CIV/M
AT 450
Do 19.05. 11:5020640 %1027
1026
974
Uml 2 (3)>= 10000Nicht signifikant 
KLAGENFURT(CIV/M
AT 450
Do 19.05. 11:2019746 %1028
1027
974
Uml 2 (3)>= 10000Nicht signifikant 
KLAGENFURT(CIV/M
AT 450
Do 19.05. 10:5018645 %1028
1028
974
Uml 2 (3)>= 10000Nicht signifikant 
KLAGENFURT(CIV/M
AT 450
Do 19.05. 10:2017648 %1028
1028
974
Uml 1 (2)>= 10000Nicht signifikant 
KLAGENFURT(CIV/M
AT 450
Do 19.05. 09:5017648 %1029
1029
975
Uml 1 (1)>= 10000Nicht signifikant 
KLAGENFURT(CIV/M
AT 450
Do 19.05. 09:2016651 %1029
1029
975
NO 2 (3)
N - O
>= 10000Nicht signifikant 
KLAGENFURT(CIV/M
AT 450
Do 19.05. 08:5015863 %1029
1029
975
Uml 1 (2)>= 10000Nicht signifikant 
KLAGENFURT(CIV/M
AT 450
Do 19.05. 08:2015759 %1029
1029
975
Uml 1 (2)>= 10000Nicht signifikant 
KLAGENFURT(CIV/M
AT 450
Do 19.05. 07:5013872 %1029
1030
975
Uml 1 (2)>= 10000Nicht signifikant 
KLAGENFURT(CIV/M
AT 450
Do 19.05. 07:2012876 %1029
1030
975
Uml 1 (1)>= 10000Nicht signifikant 
KLAGENFURT(CIV/M
AT 450
Do 19.05. 06:5010782 %1029
1030
975
NW 1 (2)>= 10000Nicht signifikant 
KLAGENFURT(CIV/M
AT 450
Do 19.05. 06:209787 %1029
1030
975
NW 2 (3)>= 10000Nicht signifikant 
KLAGENFURT(CIV/M
AT 450
Do 19.05. 05:509787 %1029
1030
975
WNW 2 (4)>= 10000Nicht signifikant 
KLAGENFURT(CIV/M
AT 450
Do 19.05. 05:209787 %1028
1029
974
NW 2 (3)>= 10000  
KLAGENFURT(CIV/M
AT 450
Do 19.05. 04:5010782 %1028
1029
974
WNW 1 (2)>= 10000  
KLAGENFURT(CIV/M
AT 450
Do 19.05. 04:2010782 %1028
1029
974
NW 1 (2)>= 10000  
KLAGENFURT(CIV/M
AT 450
Do 19.05. 03:5010782 %1028
1029
974
WNW 1 (2)>= 10000  
KLAGENFURT(CIV/M
AT 450
Do 19.05. 03:2011776 %1028
1029
974
Uml 1 (2)>= 10000  
KLAGENFURT(CIV/M
AT 450
Do 19.05. 02:5011776 %1028
1029
974
NW 2 (4)>= 10000  
KLAGENFURT(CIV/M
AT 450
Do 19.05. 02:2011776 %1028
1029
974
WNW 2 (4)>= 10000  
KLAGENFURT(CIV/M
AT 450
Do 19.05. 01:5012771 %1028
1029
974
WNW 2 (5)>= 10000  
KLAGENFURT(CIV/M
AT 450
Do 19.05. 01:2012771 %1028
1029
974
NNW 2 (4)>= 10000  
KLAGENFURT(CIV/M
AT 450
Do 19.05. 00:5013767 %1028
1029
974
Uml 1 (2)>= 10000  
KLAGENFURT(CIV/M
AT 450
Do 19.05. 00:2014763 %1028
1028
974
Uml 1 (1)>= 10000  
KLAGENFURT(CIV/M
AT 450
Mi 18.05. 23:5014763 %1028
1028
974
Uml 1 (1)>= 10000  
KLAGENFURT(CIV/M
AT 450
Mi 18.05. 23:2014555 %1028
1028
974
SO 2 (3)
O - S
>= 10000Nicht signifikant 
KLAGENFURT(CIV/M
AT 450
Mi 18.05. 22:5017545 %1027
1027
974
O 2 (4)
ONO - SO
>= 10000Nicht signifikant 
KLAGENFURT(CIV/M
AT 450
Mi 18.05. 22:2017648 %1027
1027
974
O 2 (5)
NO - OSO
>= 10000Leicht bewölkt (2700) 
KLAGENFURT(CIV/M
AT 450
Mi 18.05. 21:5018645 %1027
1027
974
O 2 (5)
NO - SO
>= 10000Leicht bewölkt (2700) 
KLAGENFURT(CIV/M
AT 450
Mi 18.05. 21:2018645 %1026
1026
973
O 2 (5)
NO - SO
>= 10000Leicht bewölkt (1800) 
KLAGENFURT(CIV/M
AT 450
Mi 18.05. 20:5019746 %1026
1025
973
O 2 (6)
NO - OSO
>= 10000Leicht bewölkt (1800) 
KLAGENFURT(CIV/M
AT 450
Mi 18.05. 20:2019746 %1026
1025
973
O 2 (6)
NO - SO
>= 10000Leicht bewölkt (1800) 
KLAGENFURT(CIV/M
AT 450
Mi 18.05. 19:5020743 %1025
1024
972
O 3 (7)
NO - SO
>= 10000Leicht bewölkt (1800) 
KLAGENFURT(CIV/M
AT 450
Mi 18.05. 19:2021740 %1025
1024
972
O 3 (9)
NO - OSO
>= 10000Leicht bewölkt (1800) 
KLAGENFURT(CIV/M
AT 450
Mi 18.05. 18:5021740 %1025
1024
972
O 3 (8)
NO - OSO
>= 10000Leicht bewölkt (1800) 
KLAGENFURT(CIV/M
AT 450
Mi 18.05. 18:2022738 %1025
1024
972
O 3 (7)
NO - SSO
>= 10000Leicht bewölkt (1800) 
KLAGENFURT(CIV/M
AT 450
Mi 18.05. 17:5022841 %1025
1024
972
O 2 (6)
ONO - SSO
>= 10000Leicht bewölkt (1800) 
KLAGENFURT(CIV/M
AT 450
Mi 18.05. 17:2022841 %1025
1024
972
O 2 (6)
NO - S
>= 10000Leicht bewölkt (1800) 
KLAGENFURT(CIV/M
AT 450
Mi 18.05. 16:5022943 %1025
1024
972
OSO 3 (7)
ONO - SSO
>= 10000Leicht bewölkt (1800) 
KLAGENFURT(CIV/M
AT 450
Mi 18.05. 16:2022841 %1025
1024
972
O 3 (7)
NO - SSO
>= 10000Leicht bewölkt (1800) 
KLAGENFURT(CIV/M
AT 450
Mi 18.05. 15:5022943 %1025
1024
972
O 3 (8)
NO - SO
>= 10000Leicht bewölkt (1800) 

Altimeter: Einstellung am Altimeter (Höhenmesser), die Höhe 0 muss auf diesen Luftdruckwert zeigen, damit das Gerät die Stationshöhe richtig anzeigt.

NN: Luftdruck reduziert auf "Normal Null", auf Meereshöhe, dieser von der Temperatur abhängige Wert wird bisweilen unkorrekt einfach als "Luftdruck" bezeichnet. Eigentlich nur eine fiktive Größe, die es erlaubt, Stationen auf unterschiedlichen Höhen miteinander zu vergleichen.

Station: Realer Luftdruck an der Station.